Time;durP1;ratioP1;P1;durP2;ratioP2;P2;SDS_P1;SDS_P2;PMS_P1;PMS_P2;Temp;Humidity;BMP_temperature;BMP_pressure;BME280_temperature;BME280_humidity;BME280_pressure;Samples;Min_cycle;Max_cycle;Signal;HPM_P1;HPM_P2
2022/10/18 00:02:30;;;;;;;16.88;11.35;;;;;;;12.66;100.00;97541.50;10580755;28;20544;-59
2022/10/18 00:07:31;;;;;;;19.85;11.35;;;;;;;12.70;100.00;97547.31;10580519;28;20213;-59
2022/10/18 00:12:35;;;;;;;17.42;10.15;;;;;;;12.79;100.00;97543.78;10580170;28;20304;-60
2022/10/18 00:17:36;;;;;;;19.33;11.20;;;;;;;12.85;100.00;97546.63;10579793;27;20676;-60
2022/10/18 00:22:38;;;;;;;17.15;10.88;;;;;;;12.80;100.00;97554.13;10579536;28;20213;-59
2022/10/18 00:27:39;;;;;;;19.40;10.77;;;;;;;12.72;100.00;97547.97;10579405;28;20241;-59
2022/10/18 00:32:40;;;;;;;12.98;9.52;;;;;;;12.88;100.00;97557.81;10579306;28;20311;-58
2022/10/18 00:37:41;;;;;;;18.92;9.75;;;;;;;12.72;100.00;97554.03;10579031;28;20696;-59
2022/10/18 00:42:41;;;;;;;17.00;9.40;;;;;;;12.54;100.00;97553.19;10578972;28;20186;-58
2022/10/18 00:47:44;;;;;;;15.90;9.60;;;;;;;12.53;100.00;97551.56;10578559;28;20217;-59
2022/10/18 00:52:52;;;;;;;15.00;9.27;;;;;;;12.69;100.00;97556.97;10578285;28;20305;-58
2022/10/18 00:57:52;;;;;;;19.15;9.75;;;;;;;12.75;100.00;97543.22;10578440;28;20679;-59
2022/10/18 01:02:53;;;;;;;17.67;9.43;;;;;;;12.61;100.00;97539.31;10577429;28;20178;-59
2022/10/18 01:08:04;;;;;;;20.77;9.40;;;;;;;12.56;100.00;97546.00;10578209;28;20263;-58
2022/10/18 01:13:33;;;;;;;14.32;9.45;;;;;;;12.52;100.00;97544.66;10576507;28;20217;-58
2022/10/18 01:18:40;;;;;;;17.63;9.52;;;;;;;12.44;100.00;97555.91;10576165;28;20241;-56
2022/10/18 01:23:51;;;;;;;16.13;9.55;;;;;;;12.39;100.00;97552.88;10576445;28;20193;-59
2022/10/18 01:29:26;;;;;;;19.15;9.68;;;;;;;12.41;100.00;97559.63;10576032;28;20251;-57
2022/10/18 01:34:30;;;;;;;15.20;8.73;;;;;;;12.44;100.00;97564.59;10532890;28;20257;-58
2022/10/18 01:39:34;;;;;;;15.55;9.07;;;;;;;12.32;100.00;97556.09;10574980;28;20193;-57
2022/10/18 01:44:36;;;;;;;16.00;8.82;;;;;;;12.35;100.00;97551.53;10576373;28;20197;-58
2022/10/18 01:49:37;;;;;;;20.70;8.68;;;;;;;12.31;100.00;97554.44;10575157;28;20197;-58
2022/10/18 01:54:38;;;;;;;13.35;9.20;;;;;;;12.22;100.00;97562.34;10575583;28;20230;-59
2022/10/18 01:59:57;;;;;;;14.77;8.57;;;;;;;12.18;100.00;97568.91;10574462;28;20592;-57
2022/10/18 02:05:03;;;;;;;15.82;8.52;;;;;;;12.21;100.00;97563.34;10574146;28;20581;-58
2022/10/18 02:10:11;;;;;;;18.38;8.30;;;;;;;12.22;100.00;97551.84;10574528;28;20187;-58
2022/10/18 02:15:15;;;;;;;13.50;8.05;;;;;;;12.18;100.00;97548.69;10574830;28;20228;-57
2022/10/18 02:20:18;;;;;;;15.43;8.20;;;;;;;12.06;100.00;97550.69;10573897;28;20201;-58
2022/10/18 02:25:24;;;;;;;16.95;8.68;;;;;;;12.09;100.00;97558.28;10574943;28;20565;-59
2022/10/18 02:30:43;;;;;;;11.88;7.35;;;;;;;12.13;100.00;97559.66;10573660;28;20572;-58
2022/10/18 02:35:46;;;;;;;15.45;8.38;;;;;;;12.03;100.00;97556.22;10573474;28;20257;-57
2022/10/18 02:40:46;;;;;;;13.07;8.02;;;;;;;11.98;100.00;97558.47;10573362;28;20186;-59
2022/10/18 02:45:47;;;;;;;16.67;8.00;;;;;;;11.89;100.00;97559.31;10574679;28;20214;-58
2022/10/18 02:50:47;;;;;;;11.18;6.95;;;;;;;11.93;100.00;97571.22;10572590;28;20204;-59
2022/10/18 02:55:47;;;;;;;16.83;8.20;;;;;;;11.85;100.00;97569.28;10573915;28;20607;-58
2022/10/18 03:00:49;;;;;;;13.75;7.85;;;;;;;11.92;100.00;97562.50;10574384;28;20190;-58
2022/10/18 03:05:51;;;;;;;8.45;6.35;;;;;;;11.84;100.00;97564.97;10539876;28;20218;-58
2022/10/18 03:10:51;;;;;;;11.10;6.90;;;;;;;11.84;100.00;97551.84;10532061;28;20194;-58
2022/10/18 03:15:52;;;;;;;10.07;7.10;;;;;;;11.81;100.00;97549.50;10531024;28;20246;-59
2022/10/18 03:20:52;;;;;;;12.07;7.20;;;;;;;11.82;100.00;97571.34;10531652;28;20190;-59
2022/10/18 03:25:52;;;;;;;10.98;7.80;;;;;;;11.82;100.00;97566.09;10531739;28;20214;-59
2022/10/18 03:30:58;;;;;;;14.48;7.53;;;;;;;11.83;100.00;97565.13;10531315;28;20266;-59
2022/10/18 03:35:59;;;;;;;11.88;7.60;;;;;;;11.76;100.00;97576.19;10531490;28;20705;-59
2022/10/18 03:40:59;;;;;;;10.75;6.53;;;;;;;11.68;100.00;97568.19;10531046;28;20186;-59
2022/10/18 03:46:00;;;;;;;10.35;7.15;;;;;;;11.61;100.00;97569.75;10530941;28;20289;-59
2022/10/18 03:51:00;;;;;;;11.95;6.43;;;;;;;11.68;100.00;97573.44;10530470;28;20193;-59
2022/10/18 03:56:01;;;;;;;13.98;6.70;;;;;;;11.77;100.00;97574.38;10529963;28;20238;-58
2022/10/18 04:01:01;;;;;;;12.50;6.72;;;;;;;11.68;100.00;97560.31;10533298;28;20205;-59
2022/10/18 04:06:02;;;;;;;11.70;6.53;;;;;;;11.61;100.00;97561.88;10537703;28;20198;-57
2022/10/18 04:11:07;;;;;;;18.13;6.93;;;;;;;11.53;100.00;97551.25;10538399;28;20186;-59
2022/10/18 04:16:07;;;;;;;10.60;7.43;;;;;;;11.37;100.00;97557.91;10537280;28;20232;-58
2022/10/18 04:21:08;;;;;;;12.35;6.32;;;;;;;11.35;100.00;97559.03;10537288;28;20187;-57
2022/10/18 04:26:08;;;;;;;16.70;7.32;;;;;;;11.23;100.00;97571.47;10537648;28;20202;-57
2022/10/18 04:31:10;;;;;;;10.57;7.22;;;;;;;11.21;100.00;97581.28;10537086;28;20239;-58
2022/10/18 04:36:10;;;;;;;11.15;6.60;;;;;;;11.28;100.00;97574.47;10537400;28;20302;-57
2022/10/18 04:41:10;;;;;;;12.00;6.70;;;;;;;11.38;100.00;97585.81;10536984;28;20277;-58
2022/10/18 04:46:11;;;;;;;11.70;7.20;;;;;;;11.33;100.00;97590.66;10536852;28;20267;-59
2022/10/18 04:51:11;;;;;;;7.78;6.25;;;;;;;11.38;100.00;97588.41;10536785;28;20190;-59
2022/10/18 04:56:12;;;;;;;13.32;6.90;;;;;;;11.22;100.00;97586.38;10535970;28;20234;-59
2022/10/18 05:01:12;;;;;;;14.68;6.45;;;;;;;11.13;100.00;97576.69;10536720;28;20678;-58
2022/10/18 05:06:13;;;;;;;10.65;6.80;;;;;;;11.19;100.00;97573.53;10535845;28;20198;-57
2022/10/18 05:11:13;;;;;;;10.52;7.32;;;;;;;11.09;100.00;97562.22;10536198;28;20555;-58
2022/10/18 05:16:14;;;;;;;14.20;7.13;;;;;;;11.15;100.00;97566.91;10535533;28;20286;-58
2022/10/18 05:21:15;;;;;;;8.85;6.20;;;;;;;11.08;100.00;97568.41;10535344;28;20564;-59
2022/10/18 05:26:16;;;;;;;9.07;6.55;;;;;;;11.08;100.00;97560.56;10535329;28;20210;-59
2022/10/18 05:31:16;;;;;;;13.30;7.25;;;;;;;11.00;100.00;97568.28;10535053;28;20186;-59
2022/10/18 05:36:17;;;;;;;12.85;7.03;;;;;;;10.99;100.00;97561.38;10535068;28;20237;-58
2022/10/18 05:41:17;;;;;;;13.32;6.93;;;;;;;11.03;100.00;97555.72;10534661;28;20201;-59
2022/10/18 05:46:17;;;;;;;14.52;7.75;;;;;;;11.11;100.00;97555.03;10534281;28;20209;-59
2022/10/18 05:51:18;;;;;;;10.73;6.85;;;;;;;11.12;100.00;97547.97;10534017;28;20186;-59
2022/10/18 05:56:18;;;;;;;12.30;7.35;;;;;;;11.09;100.00;97532.53;10533394;28;20242;-59
2022/10/18 06:01:19;;;;;;;9.65;6.82;;;;;;;11.07;100.00;97536.13;10534011;28;20194;-59
2022/10/18 06:06:21;;;;;;;10.20;6.75;;;;;;;11.02;100.00;97504.25;10564160;28;20707;-59
2022/10/18 06:11:21;;;;;;;13.00;7.25;;;;;;;11.38;100.00;97514.97;10575587;28;20193;-59
2022/10/18 06:16:22;;;;;;;10.50;6.78;;;;;;;11.64;100.00;97524.00;10573511;28;20221;-59
2022/10/18 06:21:23;;;;;;;12.45;6.85;;;;;;;11.58;100.00;97504.41;10573657;28;20186;-59
2022/10/18 06:26:24;;;;;;;14.52;6.57;;;;;;;11.74;100.00;97503.81;10574754;28;20296;-60
2022/10/18 06:31:24;;;;;;;9.10;6.30;;;;;;;12.02;100.00;97511.72;10575009;28;20190;-59
2022/10/18 06:36:26;;;;;;;11.18;5.75;;;;;;;12.02;100.00;97507.31;10574802;28;20248;-59
2022/10/18 06:41:27;;;;;;;12.82;6.97;;;;;;;12.24;100.00;97502.63;10575110;28;20212;-59
2022/10/18 06:46:27;;;;;;;15.70;6.25;;;;;;;12.35;100.00;97493.72;10567972;28;20252;-59
2022/10/18 06:51:27;;;;;;;13.20;6.40;;;;;;;12.49;100.00;97483.50;10572538;28;20582;-58
2022/10/18 06:56:28;;;;;;;10.73;6.85;;;;;;;12.41;100.00;97495.75;10572520;28;20331;-58
2022/10/18 07:01:28;;;;;;;12.32;6.75;;;;;;;12.43;100.00;97484.09;10570443;28;20570;-60
2022/10/18 07:06:29;;;;;;;10.85;7.00;;;;;;;12.65;100.00;97488.09;10572578;28;20205;-56
2022/10/18 07:11:29;;;;;;;7.57;5.43;;;;;;;13.27;100.00;97481.19;10572589;28;20202;-57
2022/10/18 07:16:31;;;;;;;10.48;5.97;;;;;;;13.67;100.00;97464.00;10570997;28;20723;-59
2022/10/18 07:21:32;;;;;;;11.02;6.25;;;;;;;13.97;100.00;97459.19;10572729;28;20193;-56
2022/10/18 07:26:33;;;;;;;8.95;6.28;;;;;;;14.43;100.00;97449.09;10571515;28;20205;-58
2022/10/18 07:31:35;;;;;;;9.35;5.53;;;;;;;14.46;100.00;97446.13;10572515;28;20668;-56
2022/10/18 07:36:35;;;;;;;9.70;6.05;;;;;;;14.63;100.00;97439.91;10575782;28;20719;-59
2022/10/18 07:41:36;;;;;;;10.00;6.00;;;;;;;14.86;100.00;97444.53;10580349;28;20284;-59
2022/10/18 07:46:36;;;;;;;8.45;6.10;;;;;;;15.04;100.00;97443.50;10579738;28;20240;-59
2022/10/18 07:51:36;;;;;;;8.77;5.35;;;;;;;15.33;100.00;97441.19;10576278;28;20198;-60
2022/10/18 07:56:37;;;;;;;10.25;5.90;;;;;;;15.68;100.00;97435.59;10578499;28;20933;-60
2022/10/18 08:01:37;;;;;;;11.00;6.15;;;;;;;15.74;100.00;97431.47;10575571;28;20198;-60
2022/10/18 08:06:38;;;;;;;12.98;5.72;;;;;;;15.71;100.00;97435.25;10576514;28;20939;-59
2022/10/18 08:11:38;;;;;;;12.38;5.75;;;;;;;15.61;100.00;97450.50;10576558;28;20194;-58
2022/10/18 08:16:38;;;;;;;16.95;6.32;;;;;;;15.58;100.00;97449.03;10576523;28;20226;-59
2022/10/18 08:21:39;;;;;;;16.20;6.15;;;;;;;15.66;100.00;97417.28;10565901;27;20194;-58
2022/10/18 08:26:39;;;;;;;10.63;5.97;;;;;;;15.58;100.00;97406.78;10574307;28;20210;-60
2022/10/18 08:31:39;;;;;;;10.35;6.15;;;;;;;15.72;100.00;97404.41;10578096;28;20557;-60
2022/10/18 08:36:40;;;;;;;9.50;5.60;;;;;;;15.90;100.00;97401.56;10575799;28;20673;-59
2022/10/18 08:41:53;;;;;;;8.02;5.03;;;;;;;16.67;100.00;97390.13;10577007;28;20197;-60
2022/10/18 08:47:11;;;;;;;10.52;8.85;;;;;;;17.05;100.00;97372.41;10576151;28;20322;-60
2022/10/18 08:52:29;;;;;;;10.80;7.22;;;;;;;17.44;100.00;97363.41;10577336;28;20252;-58
2022/10/18 08:57:31;;;;;;;18.75;7.45;;;;;;;17.64;100.00;97362.81;10566153;28;20229;-59
2022/10/18 09:02:38;;;;;;;14.35;7.65;;;;;;;17.42;100.00;97344.19;10537924;28;20186;-61
2022/10/18 09:07:50;;;;;;;10.98;6.53;;;;;;;17.68;100.00;97342.06;10536753;28;20249;-60
2022/10/18 09:13:26;;;;;;;14.40;6.60;;;;;;;18.06;100.00;97334.78;10535985;28;20552;-60
2022/10/18 09:18:45;;;;;;;11.32;6.53;;;;;;;18.54;100.00;97324.41;10536882;28;20213;-60
2022/10/18 09:23:48;;;;;;;10.65;5.93;;;;;;;18.45;100.00;97314.09;10536060;28;20175;-58
2022/10/18 09:28:54;;;;;;;10.15;5.78;;;;;;;18.53;100.00;97309.47;10569505;28;20363;-60
2022/10/18 09:34:00;;;;;;;16.75;5.78;;;;;;;18.65;100.00;97306.28;10578338;28;20696;-60
2022/10/18 09:39:04;;;;;;;10.60;4.50;;;;;;;18.54;100.00;97300.53;10578438;28;20305;-59
2022/10/18 09:44:12;;;;;;;12.70;5.13;;;;;;;18.46;100.00;97291.88;10577422;28;20194;-59
2022/10/18 09:49:20;;;;;;;11.43;4.57;;;;;;;19.24;100.00;97287.25;10577562;28;20706;-60
2022/10/18 09:54:29;;;;;;;10.80;4.93;;;;;;;18.87;100.00;97277.91;10577735;28;20232;-60
2022/10/18 09:59:41;;;;;;;9.80;4.78;;;;;;;19.00;100.00;97287.75;10574858;28;20273;-58
2022/10/18 10:04:41;;;;;;;9.57;4.57;;;;;;;19.61;100.00;97279.84;10577576;28;20210;-58
2022/10/18 10:09:47;;;;;;;10.25;3.88;;;;;;;20.30;93.08;97235.34;10577212;28;20301;-54
2022/10/18 10:14:48;;;;;;;11.63;4.10;;;;;;;20.72;89.98;97243.13;10576308;28;20602;-59
2022/10/18 10:20:02;;;;;;;8.13;2.97;;;;;;;21.45;82.18;97190.59;10577241;28;20192;-61
2022/10/18 10:25:03;;;;;;;5.13;3.03;;;;;;;21.42;82.13;97205.16;10575560;28;20225;-61
2022/10/18 10:30:19;;;;;;;6.75;2.95;;;;;;;20.43;85.26;97237.22;10575490;28;20655;-61
2022/10/18 10:35:40;;;;;;;8.57;2.83;;;;;;;20.85;81.00;97224.44;10576289;28;20255;-61
2022/10/18 10:40:50;;;;;;;11.02;3.00;;;;;;;20.48;86.08;97279.16;10574813;28;20205;-60
2022/10/18 10:46:04;;;;;;;6.20;3.25;;;;;;;19.40;88.52;97304.72;10576143;28;20198;-61
2022/10/18 10:51:06;;;;;;;6.90;3.08;;;;;;;18.71;92.81;97321.44;10574755;28;20228;-61
2022/10/18 10:56:19;;;;;;;7.82;4.30;;;;;;;18.49;97.11;97360.47;10575958;28;20296;-61
2022/10/18 11:01:23;;;;;;;13.20;5.38;;;;;;;18.39;100.00;97371.38;10575165;28;20220;-61
2022/10/18 11:06:46;;;;;;;15.30;8.85;;;;;;;17.55;100.00;97401.00;10575948;28;20714;-61
2022/10/18 11:11:55;;;;;;;14.38;9.88;;;;;;;16.96;100.00;97412.41;10579649;28;20189;-60
2022/10/18 11:17:07;;;;;;;17.65;13.60;;;;;;;16.05;100.00;97427.06;10582548;28;20309;-59
2022/10/18 11:22:13;;;;;;;23.38;16.90;;;;;;;15.27;100.00;97436.56;10576809;28;20317;-61
2022/10/18 11:27:22;;;;;;;19.23;15.93;;;;;;;14.56;100.00;97451.25;10576641;28;20213;-61
2022/10/18 11:32:32;;;;;;;23.50;16.73;;;;;;;14.18;100.00;97453.47;10579882;28;20272;-61
2022/10/18 11:37:49;;;;;;;21.33;18.30;;;;;;;14.19;100.00;97461.22;10577314;28;20772;-61
2022/10/18 11:42:52;;;;;;;21.75;16.50;;;;;;;14.15;100.00;97478.34;10577458;27;20193;-60
2022/10/18 11:48:09;;;;;;;25.98;18.75;;;;;;;14.09;100.00;97479.00;10577328;28;20213;-60
2022/10/18 11:53:27;;;;;;;18.88;16.77;;;;;;;14.18;100.00;97496.47;10577716;28;20226;-59
2022/10/18 11:58:41;;;;;;;19.63;16.00;;;;;;;14.20;100.00;97509.50;10578714;28;20672;-61
2022/10/18 12:04:04;;;;;;;17.30;14.10;;;;;;;13.90;100.00;97525.69;10581659;27;20193;-60
2022/10/18 12:09:38;;;;;;;14.48;12.05;;;;;;;13.90;100.00;97504.63;10574887;27;20214;-60
2022/10/18 12:14:46;;;;;;;11.35;9.77;;;;;;;13.83;100.00;97511.50;10523829;28;20233;-60
2022/10/18 12:19:47;;;;;;;17.25;13.10;;;;;;;13.84;100.00;97509.66;10574753;27;20201;-60
2022/10/18 12:24:47;;;;;;;19.20;15.85;;;;;;;13.78;100.00;97508.47;10574926;27;20664;-60
2022/10/18 12:29:53;;;;;;;30.25;24.15;;;;;;;13.80;100.00;97510.94;10574999;28;20194;-60
2022/10/18 12:35:03;;;;;;;30.80;20.58;;;;;;;13.70;100.00;97529.50;10575563;28;20229;-60
2022/10/18 12:40:20;;;;;;;11.82;7.90;;;;;;;13.55;100.00;97521.34;10575926;28;20612;-59
2022/10/18 12:45:28;;;;;;;10.70;9.02;;;;;;;13.59;100.00;97514.81;10576379;28;20754;-59
2022/10/18 12:50:36;;;;;;;12.07;8.25;;;;;;;13.64;100.00;97535.41;10573510;28;20419;-60
2022/10/18 12:55:41;;;;;;;6.72;5.40;;;;;;;13.70;100.00;97543.50;10572964;27;20610;-60
2022/10/18 13:00:42;;;;;;;6.38;5.10;;;;;;;13.78;100.00;97553.25;10576857;28;20643;-60
2022/10/18 13:05:45;;;;;;;5.13;3.88;;;;;;;13.72;100.00;97551.25;10576814;27;20205;-59
2022/10/18 13:10:46;;;;;;;6.45;3.70;;;;;;;13.67;100.00;97561.41;10573908;28;20193;-60
2022/10/18 13:15:51;;;;;;;4.50;4.07;;;;;;;13.58;100.00;97562.34;10573332;28;20221;-59
2022/10/18 13:21:06;;;;;;;5.25;4.00;;;;;;;13.51;100.00;97565.59;10572368;28;20194;-60
2022/10/18 13:26:25;;;;;;;5.25;3.50;;;;;;;13.50;100.00;97569.19;10570035;28;20298;-60
2022/10/18 13:31:44;;;;;;;2.58;2.05;;;;;;;13.43;100.00;97577.88;10566138;27;20193;-59
2022/10/18 13:36:57;;;;;;;3.25;2.95;;;;;;;13.47;100.00;97566.88;10574582;28;20302;-60
2022/10/18 13:41:57;;;;;;;2.50;2.17;;;;;;;13.52;100.00;97577.78;10572732;28;20283;-57
2022/10/18 13:46:57;;;;;;;3.17;1.42;;;;;;;13.45;100.00;97582.00;10571880;28;20205;-59
2022/10/18 13:52:04;;;;;;;5.13;4.63;;;;;;;13.44;100.00;97572.44;10564356;27;20289;-60
2022/10/18 13:57:20;;;;;;;7.50;6.70;;;;;;;13.42;100.00;97568.34;10565425;27;20217;-59
2022/10/18 14:02:23;;;;;;;3.83;3.10;;;;;;;13.47;100.00;97566.88;10554167;28;20201;-58
2022/10/18 14:07:24;;;;;;;3.33;3.00;;;;;;;13.58;100.00;97573.69;10548024;28;20267;-59
2022/10/18 14:12:30;;;;;;;4.13;2.42;;;;;;;13.49;100.00;97572.84;10531977;28;20281;-58
2022/10/18 14:17:45;;;;;;;1.83;1.73;;;;;;;13.62;100.00;97561.06;10564925;28;20954;-60
2022/10/18 14:22:50;;;;;;;3.33;2.80;;;;;;;13.81;100.00;97560.84;10573416;28;20204;-60
2022/10/18 14:28:16;;;;;;;2.75;1.90;;;;;;;14.31;100.00;97559.28;10571809;28;20198;-60
2022/10/18 14:33:31;;;;;;;1.70;1.60;;;;;;;14.24;100.00;97538.00;10571560;28;20210;-60
2022/10/18 14:38:33;;;;;;;2.42;2.08;;;;;;;14.26;100.00;97527.31;10551941;28;20209;-59
2022/10/18 14:43:34;;;;;;;1.40;1.30;;;;;;;14.47;100.00;97526.84;10535039;28;20197;-59
2022/10/18 14:48:34;;;;;;;1.20;1.10;;;;;;;14.51;100.00;97522.91;10564420;28;20594;-60
2022/10/18 14:53:37;;;;;;;1.92;1.27;;;;;;;14.27;100.00;97516.59;10567073;28;20225;-58
2022/10/18 14:58:40;;;;;;;1.77;1.45;;;;;;;14.16;100.00;97524.78;10551857;28;20233;-59
2022/10/18 15:03:41;;;;;;;2.25;1.60;;;;;;;13.93;100.00;97528.97;10570536;28;20189;-56
2022/10/18 15:08:42;;;;;;;2.20;1.75;;;;;;;13.78;100.00;97537.44;10568793;28;20213;-59
2022/10/18 15:13:49;;;;;;;4.60;1.52;;;;;;;13.59;100.00;97543.78;10570287;28;20225;-60
2022/10/18 15:18:59;;;;;;;1.60;1.50;;;;;;;13.49;100.00;97540.41;10567653;28;20213;-60
2022/10/18 15:24:24;;;;;;;2.92;1.70;;;;;;;13.42;100.00;97537.56;10569675;28;20235;-59
2022/10/18 15:29:25;;;;;;;1.77;1.30;;;;;;;13.58;100.00;97551.81;10568585;28;20213;-60
2022/10/18 15:34:26;;;;;;;3.47;2.22;;;;;;;13.59;100.00;97549.03;10565885;28;20202;-60
2022/10/18 15:39:29;;;;;;;7.50;3.58;;;;;;;13.49;100.00;97554.41;10568480;28;20216;-58
2022/10/18 15:44:45;;;;;;;4.40;2.60;;;;;;;13.42;100.00;97560.44;10568761;28;20662;-60
2022/10/18 15:49:55;;;;;;;6.88;4.50;;;;;;;13.20;100.00;97549.41;10544880;28;20197;-58
2022/10/18 15:54:55;;;;;;;9.93;5.05;;;;;;;13.13;100.00;97564.94;10565913;28;20239;-59
2022/10/18 16:00:04;;;;;;;6.80;4.47;;;;;;;13.11;100.00;97572.16;10588192;27;20555;-60
2022/10/18 16:05:17;;;;;;;10.48;6.05;;;;;;;13.06;100.00;97590.19;10573707;28;20205;-60
2022/10/18 16:10:17;;;;;;;11.05;6.43;;;;;;;13.06;100.00;97602.53;10573850;28;20189;-60
2022/10/18 16:15:17;;;;;;;3.60;3.00;;;;;;;13.06;100.00;97611.25;10575210;28;20262;-59
2022/10/18 16:20:21;;;;;;;8.90;7.40;;;;;;;13.02;100.00;97618.59;10576282;28;20280;-60
2022/10/18 16:25:23;;;;;;;3.00;2.70;;;;;;;12.94;100.00;97628.22;10575413;28;20237;-60
2022/10/18 16:30:26;;;;;;;5.50;3.50;;;;;;;12.97;100.00;97622.66;10576936;28;20280;-60
2022/10/18 16:35:27;;;;;;;3.20;2.22;;;;;;;12.80;100.00;97627.75;10574191;28;20742;-60
2022/10/18 16:40:28;;;;;;;2.42;2.22;;;;;;;12.78;100.00;97632.31;10575938;28;20285;-59
2022/10/18 16:45:29;;;;;;;3.92;3.22;;;;;;;12.71;100.00;97633.91;10542094;28;20214;-60
2022/10/18 16:50:29;;;;;;;3.33;3.00;;;;;;;12.78;100.00;97629.69;10534124;28;20611;-60
2022/10/18 16:55:29;;;;;;;4.28;3.88;;;;;;;12.69;100.00;97625.31;10548247;28;20230;-60
2022/10/18 17:00:30;;;;;;;4.20;3.80;;;;;;;12.52;100.00;97628.75;10575234;28;20186;-60
2022/10/18 17:05:30;;;;;;;6.20;5.20;;;;;;;12.30;100.00;97630.78;10572305;28;20198;-59
2022/10/18 17:10:31;;;;;;;29.52;20.63;;;;;;;12.14;100.00;97634.00;10572323;28;20186;-60
2022/10/18 17:15:31;;;;;;;22.25;16.83;;;;;;;12.12;100.00;97649.09;10570315;28;20248;-59
2022/10/18 17:20:31;;;;;;;37.53;24.13;;;;;;;12.22;100.00;97643.78;10569099;28;20188;-58
2022/10/18 17:25:32;;;;;;;11.48;9.77;;;;;;;12.01;100.00;97641.41;10570887;28;20691;-59
2022/10/18 17:30:33;;;;;;;13.00;10.43;;;;;;;12.02;100.00;97654.38;10573254;28;20579;-57
2022/10/18 17:35:33;;;;;;;7.32;6.35;;;;;;;12.02;100.00;97664.88;10573137;28;20209;-58
2022/10/18 17:40:34;;;;;;;4.28;3.88;;;;;;;12.18;100.00;97666.91;10572877;28;20202;-57
2022/10/18 17:45:34;;;;;;;7.72;4.38;;;;;;;12.21;100.00;97673.69;10573053;28;20722;-59
2022/10/18 17:50:39;;;;;;;8.77;4.20;;;;;;;12.15;100.00;97658.50;10573039;28;20193;-57
2022/10/18 17:55:39;;;;;;;12.63;6.90;;;;;;;11.87;100.00;97659.22;10571873;28;20796;-59
2022/10/18 18:00:40;;;;;;;46.17;18.58;;;;;;;11.76;100.00;97672.47;10572730;28;20189;-55
2022/10/18 18:05:40;;;;;;;7.32;5.38;;;;;;;11.63;100.00;97674.59;10573622;28;20213;-59
2022/10/18 18:10:40;;;;;;;7.05;5.32;;;;;;;11.53;100.00;97671.94;10573545;28;20197;-57
2022/10/18 18:15:41;;;;;;;12.40;7.95;;;;;;;11.49;100.00;97678.47;10573268;28;20249;-57
2022/10/18 18:20:48;;;;;;;10.70;8.60;;;;;;;11.52;100.00;97676.38;10571321;28;20948;-56
2022/10/18 18:25:56;;;;;;;7.72;6.40;;;;;;;11.73;100.00;97678.00;10569848;28;20313;-57
2022/10/18 18:30:56;;;;;;;13.23;7.57;;;;;;;11.74;100.00;97677.06;10571496;28;20251;-58
2022/10/18 18:35:57;;;;;;;11.38;9.35;;;;;;;11.59;100.00;97676.63;10572731;28;20266;-59
2022/10/18 18:41:01;;;;;;;13.27;9.82;;;;;;;11.70;100.00;97681.75;10572234;28;20702;-55
2022/10/18 18:46:02;;;;;;;15.98;10.77;;;;;;;11.75;100.00;97681.34;10572125;28;20205;-58
2022/10/18 18:51:04;;;;;;;9.20;8.27;;;;;;;11.90;100.00;97685.19;10571689;28;20648;-54
2022/10/18 18:56:07;;;;;;;11.35;8.20;;;;;;;11.95;100.00;97692.69;10571145;28;20230;-54
2022/10/18 19:01:19;;;;;;;14.52;9.48;;;;;;;12.05;100.00;97685.63;10572309;28;20186;-55
2022/10/18 19:06:21;;;;;;;25.88;14.40;;;;;;;12.18;100.00;97684.47;10539450;28;20217;-59
2022/10/18 19:11:22;;;;;;;16.75;12.32;;;;;;;12.36;100.00;97669.63;10567782;28;20194;-55
2022/10/18 19:16:24;;;;;;;16.00;10.45;;;;;;;12.39;100.00;97658.81;10569315;28;20221;-58
2022/10/18 19:21:29;;;;;;;12.60;9.40;;;;;;;12.37;100.00;97657.31;10570693;28;20186;-57
2022/10/18 19:26:37;;;;;;;9.02;8.13;;;;;;;12.42;100.00;97658.53;10571195;28;20247;-55
2022/10/18 19:31:37;;;;;;;10.13;8.80;;;;;;;12.40;100.00;97657.81;10575646;28;20224;-55
2022/10/18 19:36:39;;;;;;;9.55;7.47;;;;;;;12.30;100.00;97662.31;10579079;28;20312;-58
2022/10/18 19:41:40;;;;;;;7.95;7.15;;;;;;;12.30;100.00;97668.38;10579149;28;20198;-59
2022/10/18 19:46:40;;;;;;;10.60;7.82;;;;;;;12.45;100.00;97663.50;10578788;28;20209;-58
2022/10/18 19:51:40;;;;;;;9.13;8.15;;;;;;;12.40;100.00;97665.72;10577641;28;20225;-56
2022/10/18 19:56:41;;;;;;;9.15;7.57;;;;;;;12.45;100.00;97662.66;10578405;28;20642;-56
2022/10/18 20:01:42;;;;;;;8.02;7.22;;;;;;;12.24;100.00;97657.63;10578750;28;20276;-55
2022/10/18 20:06:42;;;;;;;10.45;9.30;;;;;;;12.13;100.00;97666.53;10577276;28;20707;-57
2022/10/18 20:11:43;;;;;;;13.43;9.80;;;;;;;11.87;100.00;97674.97;10575877;28;20254;-56
2022/10/18 20:16:43;;;;;;;12.30;10.48;;;;;;;11.84;100.00;97682.28;10574670;28;20699;-58
2022/10/18 20:21:44;;;;;;;14.80;10.77;;;;;;;11.81;100.00;97680.78;10577326;28;20206;-58
2022/10/18 20:26:44;;;;;;;13.45;11.57;;;;;;;11.97;100.00;97676.78;10577873;27;20206;-55
2022/10/18 20:31:46;;;;;;;17.65;14.30;;;;;;;11.82;100.00;97678.97;10577589;28;20694;-57
2022/10/18 20:36:46;;;;;;;19.70;13.63;;;;;;;11.98;100.00;97684.50;10574253;27;20757;-59
2022/10/18 20:41:47;;;;;;;18.23;12.65;;;;;;;11.91;100.00;97670.25;10573692;28;20198;-58
2022/10/18 20:46:47;;;;;;;16.38;12.27;;;;;;;11.74;100.00;97675.25;10574014;28;20216;-54
2022/10/18 20:51:48;;;;;;;15.75;12.35;;;;;;;11.66;100.00;97664.63;10571694;28;20343;-55
2022/10/18 20:56:48;;;;;;;16.58;14.38;;;;;;;11.24;100.00;97655.25;10574671;28;20225;-56
2022/10/18 21:01:48;;;;;;;22.00;16.15;;;;;;;10.98;100.00;97659.34;10577220;28;20186;-57
2022/10/18 21:06:49;;;;;;;28.30;17.75;;;;;;;10.79;100.00;97662.78;10576364;28;20205;-55
2022/10/18 21:11:52;;;;;;;31.55;16.55;;;;;;;10.65;100.00;97677.91;10576475;28;20686;-57
2022/10/18 21:16:53;;;;;;;26.20;16.95;;;;;;;10.59;100.00;97682.84;10575759;28;20225;-58
2022/10/18 21:21:55;;;;;;;29.65;18.75;;;;;;;10.40;100.00;97679.19;10575901;28;20200;-56
2022/10/18 21:26:56;;;;;;;30.58;18.02;;;;;;;10.48;100.00;97689.00;10575899;28;20247;-58
2022/10/18 21:31:58;;;;;;;29.08;17.60;;;;;;;10.30;100.00;97696.63;10575616;28;20963;-59
2022/10/18 21:36:58;;;;;;;26.40;17.05;;;;;;;10.45;100.00;97702.38;10575308;28;20313;-59
2022/10/18 21:41:58;;;;;;;27.88;17.48;;;;;;;10.27;100.00;97689.84;10573933;28;20189;-59
2022/10/18 21:46:59;;;;;;;33.55;18.38;;;;;;;10.19;100.00;97684.44;10574709;28;20210;-58
2022/10/18 21:52:02;;;;;;;37.45;20.50;;;;;;;10.34;100.00;97706.72;10575100;28;20222;-58
2022/10/18 21:57:02;;;;;;;34.35;19.50;;;;;;;10.48;100.00;97713.41;10573474;28;20711;-57
2022/10/18 22:02:03;;;;;;;37.33;19.50;;;;;;;10.45;100.00;97716.28;10574594;28;20182;-56
2022/10/18 22:07:03;;;;;;;30.63;17.90;;;;;;;10.57;100.00;97719.66;10574352;28;20205;-60
2022/10/18 22:12:04;;;;;;;46.70;24.55;;;;;;;10.94;100.00;97726.97;10574288;27;20190;-59
2022/10/18 22:17:04;;;;;;;53.10;27.55;;;;;;;11.29;100.00;97730.09;10573648;28;20274;-57
2022/10/18 22:22:04;;;;;;;53.85;29.13;;;;;;;11.41;100.00;97735.06;10573546;28;20261;-61
2022/10/18 22:27:05;;;;;;;49.92;28.42;;;;;;;11.52;100.00;97733.28;10573947;28;20206;-60
2022/10/18 22:32:05;;;;;;;54.88;30.63;;;;;;;11.51;100.00;97713.25;10573467;28;20196;-60
2022/10/18 22:37:06;;;;;;;48.40;28.30;;;;;;;11.62;100.00;97707.84;10572587;28;20703;-60
2022/10/18 22:42:06;;;;;;;56.90;28.92;;;;;;;11.51;100.00;97706.19;10573570;28;20181;-59
2022/10/18 22:47:06;;;;;;;47.78;29.58;;;;;;;11.51;100.00;97697.50;10572364;28;20213;-58
2022/10/18 22:52:07;;;;;;;50.55;29.60;;;;;;;11.52;100.00;97680.81;10573168;28;20286;-59
2022/10/18 22:57:07;;;;;;;51.53;30.20;;;;;;;11.51;100.00;97672.09;10572528;28;20221;-59
2022/10/18 23:02:08;;;;;;;49.13;30.33;;;;;;;11.58;100.00;97669.75;10572698;28;20194;-58